Time,TemperatureF,DewpointF,PressureIn,WindDirection,WindDirectionDegrees,WindSpeedMPH,WindSpeedGustMPH,Humidity,HourlyPrecipIn,Conditions,Clouds,dailyrainin,SoftwareType,DateUTC
2013-03-19 00:13:00,29.4,28.0,30.10,SW,227,3.0,6.0,94,0.00,,,0.00,weatherlink.com 1.10,2013-03-19 04:13:00,
2013-03-19 00:28:00,29.5,28.0,30.08,SSW,194,1.0,6.0,93,0.00,,,0.00,weatherlink.com 1.10,2013-03-19 04:28:00,
2013-03-19 00:43:00,29.6,28.0,30.07,SSW,213,1.0,7.0,93,0.00,,,0.00,weatherlink.com 1.10,2013-03-19 04:43:00,
2013-03-19 00:58:00,29.7,28.0,30.07,WSW,252,2.0,3.0,93,0.00,,,0.00,weatherlink.com 1.10,2013-03-19 04:58:00,
2013-03-19 01:13:00,29.7,28.0,30.06,WSW,240,2.0,7.0,93,0.00,,,0.00,weatherlink.com 1.10,2013-03-19 05:13:00,
2013-03-19 01:43:00,29.8,28.0,30.02,SSW,212,1.0,6.0,93,0.00,,,0.00,weatherlink.com 1.10,2013-03-19 05:43:00,
2013-03-19 02:13:00,30.2,29.0,30.00,SSE,159,4.0,6.0,93,0.00,,,0.00,weatherlink.com 1.10,2013-03-19 06:13:00,
2013-03-19 02:28:00,30.5,29.0,29.99,WSW,248,2.0,9.0,92,0.00,,,0.00,weatherlink.com 1.10,2013-03-19 06:28:00,
2013-03-19 02:43:00,30.7,29.0,29.98,East,98,1.0,8.0,92,0.00,,,0.00,weatherlink.com 1.10,2013-03-19 06:43:00,
2013-03-19 02:58:00,30.9,29.0,29.99,North,360,1.0,5.0,93,0.00,,,0.00,weatherlink.com 1.10,2013-03-19 06:58:00,
2013-03-19 03:13:00,31.2,29.0,29.98,SE,126,3.0,5.0,93,0.00,,,0.00,weatherlink.com 1.10,2013-03-19 07:13:00,
2013-03-19 03:28:00,31.4,30.0,29.98,East,82,4.0,6.0,93,0.00,,,0.00,weatherlink.com 1.10,2013-03-19 07:28:00,
2013-03-19 03:43:00,31.4,30.0,29.97,West,262,0.0,4.0,93,0.00,,,0.00,weatherlink.com 1.10,2013-03-19 07:43:00,
2013-03-19 03:58:00,31.4,30.0,29.95,West,271,3.0,9.0,93,0.00,,,0.00,weatherlink.com 1.10,2013-03-19 07:58:00,
2013-03-19 04:13:00,31.2,29.0,29.94,WSW,245,4.0,7.0,93,0.00,,,0.00,weatherlink.com 1.10,2013-03-19 08:13:00,
2013-03-19 04:28:00,31.2,29.0,29.94,NW,323,1.0,8.0,93,0.00,,,0.00,weatherlink.com 1.10,2013-03-19 08:28:00,
2013-03-19 04:43:00,31.1,29.0,29.93,WSW,252,0.0,7.0,92,0.00,,,0.00,weatherlink.com 1.10,2013-03-19 08:43:00,
2013-03-19 04:58:00,31.1,29.0,29.92,SW,233,6.0,7.0,92,0.00,,,0.00,weatherlink.com 1.10,2013-03-19 08:58:00,
2013-03-19 05:13:00,31.2,29.0,29.92,NNW,342,3.0,7.0,92,0.00,,,0.00,weatherlink.com 1.10,2013-03-19 09:13:00,
2013-03-19 05:28:00,31.3,29.0,29.91,SE,133,2.0,7.0,92,0.00,,,0.00,weatherlink.com 1.10,2013-03-19 09:28:00,
2013-03-19 05:43:00,31.5,30.0,29.90,West,269,2.0,9.0,92,0.00,,,0.00,weatherlink.com 1.10,2013-03-19 09:43:00,
2013-03-19 05:58:00,31.6,30.0,29.89,SW,236,3.0,7.0,92,0.00,,,0.00,weatherlink.com 1.10,2013-03-19 09:58:00,
2013-03-19 06:13:00,31.7,29.0,29.88,North,351,3.0,7.0,91,0.00,,,0.00,weatherlink.com 1.10,2013-03-19 10:13:00,
2013-03-19 06:29:00,31.7,29.0,29.88,WSW,256,1.0,6.0,91,0.00,,,0.00,weatherlink.com 1.10,2013-03-19 10:29:00,
2013-03-19 06:44:00,31.7,29.0,29.87,NNW,337,2.0,8.0,91,0.00,,,0.00,weatherlink.com 1.10,2013-03-19 10:44:00,
2013-03-19 06:59:00,31.6,29.0,29.86,East,83,1.0,14.0,91,0.00,,,0.00,weatherlink.com 1.10,2013-03-19 10:59:00,
2013-03-19 07:14:00,31.7,29.0,29.86,NNW,330,6.0,7.0,91,0.00,,,0.00,weatherlink.com 1.10,2013-03-19 11:14:00,
2013-03-19 07:29:00,31.6,29.0,29.85,West,265,1.0,5.0,91,0.00,,,0.00,weatherlink.com 1.10,2013-03-19 11:29:00,
2013-03-19 07:44:00,31.7,29.0,29.86,South,169,0.0,8.0,91,0.00,,,0.00,weatherlink.com 1.10,2013-03-19 11:44:00,
2013-03-19 07:59:00,31.8,30.0,29.85,WSW,252,3.0,7.0,92,0.00,,,0.00,weatherlink.com 1.10,2013-03-19 11:59:00,
2013-03-19 08:14:00,31.9,30.0,29.86,West,281,0.0,6.0,93,0.00,,,0.00,weatherlink.com 1.10,2013-03-19 12:14:00,
2013-03-19 08:29:00,32.0,30.0,29.85,WNW,302,2.0,9.0,93,0.00,,,0.00,weatherlink.com 1.10,2013-03-19 12:29:00,
2013-03-19 08:44:00,32.1,30.0,29.85,WNW,284,1.0,5.0,93,0.00,,,0.00,weatherlink.com 1.10,2013-03-19 12:44:00,
2013-03-19 08:59:00,32.2,30.0,29.83,NNE,15,4.0,8.0,93,0.00,,,0.00,weatherlink.com 1.10,2013-03-19 12:59:00,
2013-03-19 09:14:00,32.3,31.0,29.83,West,268,3.0,5.0,93,0.00,,,0.00,weatherlink.com 1.10,2013-03-19 13:14:00,
2013-03-19 09:29:00,32.5,31.0,29.82,West,273,3.0,5.0,93,0.00,,,0.00,weatherlink.com 1.10,2013-03-19 13:29:00,
2013-03-19 09:44:00,32.7,31.0,29.82,West,265,3.0,3.0,93,0.00,,,0.00,weatherlink.com 1.10,2013-03-19 13:44:00,
2013-03-19 09:59:00,33.0,31.0,29.79,North,5,3.0,8.0,93,0.00,,,0.00,weatherlink.com 1.10,2013-03-19 13:59:00,
2013-03-19 10:14:00,33.3,31.0,29.79,SE,126,1.0,12.0,92,0.00,,,0.00,weatherlink.com 1.10,2013-03-19 14:14:00,
2013-03-19 10:29:00,33.6,32.0,29.79,WNW,285,2.0,4.0,92,0.00,,,0.00,weatherlink.com 1.10,2013-03-19 14:29:00,
2013-03-19 10:44:00,33.7,32.0,29.78,NW,304,3.0,3.0,92,0.00,,,0.00,weatherlink.com 1.10,2013-03-19 14:44:00,
2013-03-19 10:59:00,34.0,32.0,29.78,West,275,2.0,3.0,92,0.00,,,0.00,weatherlink.com 1.10,2013-03-19 14:59:00,
2013-03-19 11:14:00,34.0,32.0,29.79,NNW,346,1.0,3.0,93,0.00,,,0.00,weatherlink.com 1.10,2013-03-19 15:14:00,
2013-03-19 11:29:00,34.0,32.0,29.78,North,355,2.0,4.0,93,0.00,,,0.00,weatherlink.com 1.10,2013-03-19 15:29:00,
2013-03-19 11:44:00,34.1,33.0,29.79,WNW,303,2.0,6.0,94,0.00,,,0.00,weatherlink.com 1.10,2013-03-19 15:44:00,
2013-03-19 11:59:00,34.1,33.0,29.81,WNW,292,8.0,9.0,94,0.00,,,0.00,weatherlink.com 1.10,2013-03-19 15:59:00,
2013-03-19 12:14:00,34.4,33.0,29.81,WNW,296,3.0,4.0,94,0.00,,,0.00,weatherlink.com 1.10,2013-03-19 16:14:00,
2013-03-19 12:29:00,34.3,33.0,29.79,NW,321,2.0,6.0,94,0.00,,,0.00,weatherlink.com 1.10,2013-03-19 16:29:00,
2013-03-19 12:44:00,34.3,33.0,29.77,NW,319,3.0,4.0,94,0.00,,,0.00,weatherlink.com 1.10,2013-03-19 16:44:00,
2013-03-19 12:59:00,34.6,33.0,29.78,WNW,298,2.0,4.0,94,0.00,,,0.00,weatherlink.com 1.10,2013-03-19 16:59:00,
2013-03-19 13:14:00,34.5,33.0,29.73,North,5,2.0,5.0,93,0.00,,,0.00,weatherlink.com 1.10,2013-03-19 17:14:00,
2013-03-19 13:29:00,35.1,34.0,29.74,NNW,332,3.0,4.0,94,0.00,,,0.00,weatherlink.com 1.10,2013-03-19 17:29:00,
2013-03-19 13:44:00,37.3,35.0,29.73,NNW,336,4.0,6.0,91,0.00,,,0.00,weatherlink.com 1.10,2013-03-19 17:44:00,
2013-03-19 13:59:00,38.6,35.0,29.72,North,5,2.0,5.0,88,0.04,,,0.04,weatherlink.com 1.10,2013-03-19 17:59:00,
2013-03-19 14:14:00,38.3,35.0,29.72,NW,306,7.0,9.0,87,0.08,,,0.08,weatherlink.com 1.10,2013-03-19 18:14:00,
2013-03-19 14:29:00,38.2,35.0,29.72,NNW,331,2.0,6.0,87,0.12,,,0.12,weatherlink.com 1.10,2013-03-19 18:29:00,
2013-03-19 14:44:00,38.4,35.0,29.71,NNW,338,2.0,5.0,86,0.14,,,0.14,weatherlink.com 1.10,2013-03-19 18:44:00,
2013-03-19 14:59:00,38.8,35.0,29.70,NNW,340,1.0,5.0,85,0.13,,,0.17,weatherlink.com 1.10,2013-03-19 18:59:00,
2013-03-19 15:14:00,38.4,35.0,29.70,WNW,303,2.0,6.0,87,0.11,,,0.19,weatherlink.com 1.10,2013-03-19 19:14:00,
2013-03-19 15:29:00,38.0,35.0,29.71,NW,309,3.0,5.0,87,0.09,,,0.21,weatherlink.com 1.10,2013-03-19 19:29:00,
2013-03-19 15:44:00,37.7,35.0,29.72,NW,305,3.0,8.0,88,0.08,,,0.22,weatherlink.com 1.10,2013-03-19 19:44:00,
2013-03-19 16:00:00,37.2,35.0,29.73,NW,318,3.0,5.0,90,0.06,,,0.23,weatherlink.com 1.10,2013-03-19 20:00:00,
2013-03-19 16:15:00,37.4,35.0,29.72,NW,309,3.0,4.0,90,0.05,,,0.24,weatherlink.com 1.10,2013-03-19 20:15:00,
2013-03-19 16:31:00,36.9,35.0,29.72,West,280,2.0,10.0,91,0.05,,,0.26,weatherlink.com 1.10,2013-03-19 20:31:00,
2013-03-19 16:45:00,37.5,35.0,29.71,NW,309,1.0,6.0,91,0.05,,,0.27,weatherlink.com 1.10,2013-03-19 20:45:00,
2013-03-19 17:00:00,38.2,35.0,29.71,NW,309,4.0,4.0,88,0.05,,,0.28,weatherlink.com 1.10,2013-03-19 21:00:00,
2013-03-19 17:15:00,37.8,35.0,29.71,NNW,327,2.0,4.0,89,0.06,,,0.30,weatherlink.com 1.10,2013-03-19 21:15:00,
2013-03-19 17:30:00,38.1,35.0,29.73,WNW,286,2.0,4.0,88,0.05,,,0.31,weatherlink.com 1.10,2013-03-19 21:30:00,
2013-03-19 17:45:00,37.4,34.0,29.72,NW,312,6.0,12.0,88,0.05,,,0.32,weatherlink.com 1.10,2013-03-19 21:45:00,
2013-03-19 18:00:00,36.8,34.0,29.72,West,263,3.0,7.0,88,0.05,,,0.33,weatherlink.com 1.10,2013-03-19 22:00:00,
2013-03-19 18:15:00,36.3,33.0,29.72,West,276,1.0,6.0,89,0.03,,,0.33,weatherlink.com 1.10,2013-03-19 22:15:00,
2013-03-19 18:30:00,36.2,33.0,29.72,NW,323,1.0,3.0,88,0.03,,,0.34,weatherlink.com 1.10,2013-03-19 22:30:00,
2013-03-19 18:45:00,36.0,33.0,29.73,NNW,338,0.0,4.0,89,0.02,,,0.34,weatherlink.com 1.10,2013-03-19 22:45:00,
2013-03-19 19:00:00,35.5,33.0,29.73,WSW,239,0.0,3.0,89,0.01,,,0.34,weatherlink.com 1.10,2013-03-19 23:00:00,
2013-03-19 19:15:00,35.1,32.0,29.74,NW,318,1.0,4.0,89,0.00,,,0.34,weatherlink.com 1.10,2013-03-19 23:15:00,
2013-03-19 19:30:00,34.7,32.0,29.74,NNW,335,1.0,2.0,90,0.00,,,0.34,weatherlink.com 1.10,2013-03-19 23:30:00,
2013-03-19 19:45:00,33.9,32.0,29.77,NNW,335,2.0,2.0,92,0.00,,,0.34,weatherlink.com 1.10,2013-03-19 23:45:00,
2013-03-19 20:00:00,33.8,32.0,29.76,NW,304,0.0,4.0,94,0.00,,,0.34,weatherlink.com 1.10,2013-03-20 00:00:00,
2013-03-19 20:15:00,33.8,32.0,29.75,ESE,117,0.0,1.0,94,0.00,,,0.34,weatherlink.com 1.10,2013-03-20 00:15:00,
2013-03-19 20:30:00,33.7,33.0,29.76,ESE,117,0.0,2.0,95,0.00,,,0.34,weatherlink.com 1.10,2013-03-20 00:30:00,
2013-03-19 20:45:00,33.7,33.0,29.76,ESE,117,2.0,2.0,95,0.00,,,0.34,weatherlink.com 1.10,2013-03-20 00:45:00,
2013-03-19 21:00:00,34.1,33.0,29.77,ENE,59,1.0,2.0,95,0.00,,,0.34,weatherlink.com 1.10,2013-03-20 01:00:00,
2013-03-19 21:15:00,34.6,33.0,29.79,NNW,348,1.0,3.0,95,0.00,,,0.34,weatherlink.com 1.10,2013-03-20 01:15:00,
2013-03-19 21:30:00,34.8,34.0,29.77,NNW,336,2.0,3.0,95,0.00,,,0.34,weatherlink.com 1.10,2013-03-20 01:30:00,
2013-03-19 21:45:00,34.9,33.0,29.77,NNW,336,2.0,8.0,94,0.00,,,0.34,weatherlink.com 1.10,2013-03-20 01:45:00,
2013-03-19 22:00:00,35.2,33.0,29.77,NW,326,0.0,5.0,93,0.00,,,0.34,weatherlink.com 1.10,2013-03-20 02:00:00,
2013-03-19 22:15:00,35.4,33.0,29.78,NW,320,3.0,9.0,92,0.00,,,0.34,weatherlink.com 1.10,2013-03-20 02:15:00,
2013-03-19 22:30:00,35.2,33.0,29.78,NE,44,3.0,6.0,91,0.00,,,0.34,weatherlink.com 1.10,2013-03-20 02:30:00,
2013-03-19 22:45:00,35.2,33.0,29.80,NW,319,6.0,10.0,91,0.00,,,0.34,weatherlink.com 1.10,2013-03-20 02:45:00,
2013-03-19 23:00:00,35.2,33.0,29.79,NNE,27,1.0,8.0,90,0.00,,,0.34,weatherlink.com 1.10,2013-03-20 03:00:00,
2013-03-19 23:15:00,34.8,32.0,29.78,NNW,340,6.0,8.0,89,0.00,,,0.34,weatherlink.com 1.10,2013-03-20 03:15:00,
2013-03-19 23:30:00,34.5,31.0,29.78,West,275,7.0,7.0,88,0.00,,,0.34,weatherlink.com 1.10,2013-03-20 03:30:00,
2013-03-19 23:45:00,34.3,31.0,29.79,WSW,242,10.0,12.0,86,0.00,,,0.34,weatherlink.com 1.10,2013-03-20 03:45:00,